Time;durP1;ratioP1;P1;durP2;ratioP2;P2;SDS_P1;SDS_P2;PMS_P1;PMS_P2;Temp;Humidity;BMP_temperature;BMP_pressure;BME280_temperature;BME280_humidity;BME280_pressure;Samples;Min_cycle;Max_cycle;Signal;HPM_P1;HPM_P2
2021/03/31 00:00:52;;;;;;;;;;;19.60;56.40;;;;;;5094467;28;1910;-64
2021/03/31 00:03:18;;;;;;;;;;;19.60;56.40;;;;;;5093367;28;1321;-64
2021/03/31 00:05:43;;;;;;;;;;;19.60;56.40;;;;;;5093178;28;1264;-65
2021/03/31 00:08:09;;;;;;;;;;;19.60;56.40;;;;;;5093930;28;1245;-65
2021/03/31 00:10:55;;;;;;;;;;;19.60;56.40;;;;;;5092984;28;1297;-64
2021/03/31 00:13:21;;;;;;;;;;;19.60;56.50;;;;;;5108097;28;1296;-65
2021/03/31 00:15:47;;;;;;;;;;;19.60;56.50;;;;;;5094386;28;1020;-64
2021/03/31 00:18:12;;;;;;;;;;;19.60;56.50;;;;;;5093865;28;1310;-64
2021/03/31 00:20:38;;;;;;;;;;;19.60;56.50;;;;;;5089170;28;1967;-65
2021/03/31 00:23:04;;;;;;;;;;;19.60;57.10;;;;;;5072311;28;1154;-65
2021/03/31 00:25:29;;;;;;;;;;;19.60;56.50;;;;;;5082725;28;1293;-65
2021/03/31 00:27:55;;;;;;;;;;;19.60;56.50;;;;;;5090171;28;1388;-64
2021/03/31 00:30:20;;;;;;;;;;;19.50;56.00;;;;;;5085282;28;1136;-65
2021/03/31 00:32:46;;;;;;;;;;;19.50;56.50;;;;;;5099272;28;1179;-66
2021/03/31 00:35:11;;;;;;;;;;;19.60;56.50;;;;;;5089213;28;1492;-65
2021/03/31 00:37:37;;;;;;;;;;;19.60;56.60;;;;;;5080466;28;1599;-65
2021/03/31 00:40:05;;;;;;;;;;;19.50;56.50;;;;;;5097232;28;1906;-64
2021/03/31 00:42:30;;;;;;;;;;;19.50;56.50;;;;;;5087022;28;1176;-64
2021/03/31 00:44:56;;;;;;;;;;;19.50;56.50;;;;;;5082371;28;1167;-64
2021/03/31 00:47:21;;;;;;;;;;;19.50;56.50;;;;;;5071786;28;1285;-65
2021/03/31 00:49:46;;;;;;;;;;;19.50;56.50;;;;;;5082406;28;1366;-64
2021/03/31 00:52:12;;;;;;;;;;;19.50;56.50;;;;;;5093384;28;1032;-65
2021/03/31 00:54:37;;;;;;;;;;;19.50;56.60;;;;;;5092410;28;1363;-65
2021/03/31 00:57:03;;;;;;;;;;;19.50;56.60;;;;;;5091808;28;1329;-64
2021/03/31 00:59:28;;;;;;;;;;;19.50;56.60;;;;;;5093767;28;1298;-64
2021/03/31 01:01:54;;;;;;;;;;;19.50;56.60;;;;;;5091938;28;1964;-65
2021/03/31 01:04:19;;;;;;;;;;;19.50;56.60;;;;;;5092093;28;1261;-65
2021/03/31 01:06:44;;;;;;;;;;;19.50;56.60;;;;;;5079644;28;1224;-65
2021/03/31 01:09:10;;;;;;;;;;;19.50;57.20;;;;;;5092820;28;1325;-65
2021/03/31 01:11:54;;;;;;;;;;;19.50;56.60;;;;;;5093127;28;1312;-65
2021/03/31 01:14:23;;;;;;;;;;;19.50;56.60;;;;;;5090858;28;1282;-64
2021/03/31 01:16:49;;;;;;;;;;;19.50;56.70;;;;;;5091987;28;1460;-64
2021/03/31 01:19:30;;;;;;;;;;;19.50;56.70;;;;;;5091332;28;1319;-65
2021/03/31 01:22:13;;;;;;;;;;;19.50;56.70;;;;;;5085094;28;1910;-67
2021/03/31 01:24:56;;;;;;;;;;;19.40;56.60;;;;;;5091717;28;1249;-67
2021/03/31 01:27:31;;;;;;;;;;;19.50;56.70;;;;;;5074572;28;1118;-67
2021/03/31 01:30:09;;;;;;;;;;;19.40;56.70;;;;;;5110199;22;3669;-69
2021/03/31 01:32:38;;;;;;;;;;;19.40;56.70;;;;;;5092715;28;1336;-69
2021/03/31 01:35:06;;;;;;;;;;;19.40;56.70;;;;;;5092692;28;1339;-69
2021/03/31 01:37:32;;;;;;;;;;;19.50;56.70;;;;;;5090893;28;1646;-69
2021/03/31 01:39:58;;;;;;;;;;;19.50;56.70;;;;;;5091190;28;1674;-69
2021/03/31 01:42:23;;;;;;;;;;;19.50;56.80;;;;;;5090538;28;1898;-69
2021/03/31 01:44:50;;;;;;;;;;;19.50;56.70;;;;;;5091265;28;1900;-69
2021/03/31 01:47:16;;;;;;;;;;;19.50;56.80;;;;;;5090485;28;1398;-69
2021/03/31 01:49:42;;;;;;;;;;;19.40;56.70;;;;;;5092324;28;1697;-69
2021/03/31 01:52:07;;;;;;;;;;;19.50;56.80;;;;;;5091711;28;1605;-69
2021/03/31 01:54:33;;;;;;;;;;;19.40;56.70;;;;;;5091060;28;1368;-69
2021/03/31 01:56:58;;;;;;;;;;;19.50;56.80;;;;;;5090882;28;1168;-69
2021/03/31 01:59:24;;;;;;;;;;;19.40;56.70;;;;;;5090635;28;1412;-69
2021/03/31 02:01:50;;;;;;;;;;;19.40;56.70;;;;;;5092089;28;1979;-69
2021/03/31 02:04:16;;;;;;;;;;;19.40;56.70;;;;;;5092276;28;1258;-69
2021/03/31 02:06:41;;;;;;;;;;;19.40;56.80;;;;;;5075836;28;1222;-69
2021/03/31 02:09:06;;;;;;;;;;;19.40;56.80;;;;;;5087098;28;1590;-69
2021/03/31 02:11:32;;;;;;;;;;;19.40;56.80;;;;;;5087405;28;1579;-69
2021/03/31 02:13:57;;;;;;;;;;;19.40;56.80;;;;;;5080212;28;1238;-69
2021/03/31 02:16:23;;;;;;;;;;;19.40;56.80;;;;;;5091953;28;1571;-69
2021/03/31 02:18:48;;;;;;;;;;;19.40;56.80;;;;;;5090429;28;1633;-69
2021/03/31 02:21:14;;;;;;;;;;;19.40;56.80;;;;;;5081915;28;1989;-69
2021/03/31 02:23:39;;;;;;;;;;;19.40;56.80;;;;;;5071808;28;1238;-69
2021/03/31 02:26:05;;;;;;;;;;;19.40;56.80;;;;;;5086951;28;1571;-69
2021/03/31 02:28:33;;;;;;;;;;;19.40;56.80;;;;;;5071337;28;1628;-69
2021/03/31 02:30:58;;;;;;;;;;;19.40;56.80;;;;;;5071808;28;1657;-69
2021/03/31 02:33:25;;;;;;;;;;;19.40;56.80;;;;;;5071625;28;1386;-69
2021/03/31 02:35:50;;;;;;;;;;;19.40;56.80;;;;;;5070270;28;1230;-69
2021/03/31 02:38:16;;;;;;;;;;;19.40;56.80;;;;;;5086839;28;1689;-69
2021/03/31 02:40:45;;;;;;;;;;;19.40;56.80;;;;;;5087099;28;1967;-69
2021/03/31 02:43:12;;;;;;;;;;;19.40;56.80;;;;;;5087492;28;1691;-69
2021/03/31 02:45:37;;;;;;;;;;;19.40;56.90;;;;;;5071703;28;1667;-69
2021/03/31 02:48:04;;;;;;;;;;;19.40;56.90;;;;;;5086840;28;1380;-69
2021/03/31 02:50:29;;;;;;;;;;;19.40;56.90;;;;;;5071804;28;1490;-69
2021/03/31 02:52:54;;;;;;;;;;;19.30;56.80;;;;;;5087301;28;1746;-69
2021/03/31 02:55:20;;;;;;;;;;;19.40;56.90;;;;;;5071652;28;1162;-69
2021/03/31 02:57:46;;;;;;;;;;;19.30;56.80;;;;;;5087982;28;1367;-69
2021/03/31 03:00:12;;;;;;;;;;;19.40;56.90;;;;;;5090674;28;1910;-69
2021/03/31 03:02:37;;;;;;;;;;;19.40;56.90;;;;;;5095632;28;1269;-69
2021/03/31 03:05:03;;;;;;;;;;;19.40;56.90;;;;;;5074583;28;1456;-70
2021/03/31 03:07:28;;;;;;;;;;;19.40;56.90;;;;;;5074681;28;1262;-69
2021/03/31 03:09:54;;;;;;;;;;;19.30;56.70;;;;;;5076174;28;1317;-69
2021/03/31 03:12:19;;;;;;;;;;;19.40;56.70;;;;;;5088536;28;1202;-69
2021/03/31 03:14:46;;;;;;;;;;;19.40;56.60;;;;;;5070971;28;1247;-68
2021/03/31 03:17:11;;;;;;;;;;;19.40;56.60;;;;;;5085326;28;1407;-69
2021/03/31 03:19:37;;;;;;;;;;;19.50;56.50;;;;;;5070453;28;1306;-69
2021/03/31 03:22:02;;;;;;;;;;;19.60;56.40;;;;;;5073243;28;1914;-68
2021/03/31 03:24:28;;;;;;;;;;;19.60;56.20;;;;;;5068494;28;1177;-68
2021/03/31 03:26:53;;;;;;;;;;;19.80;56.10;;;;;;5073294;28;1424;-70
2021/03/31 03:29:19;;;;;;;;;;;19.80;55.90;;;;;;5069239;28;1348;-70
2021/03/31 03:31:44;;;;;;;;;;;19.90;55.70;;;;;;5069234;28;1247;-69
2021/03/31 03:34:10;;;;;;;;;;;20.00;55.60;;;;;;5072471;28;1318;-68
2021/03/31 03:36:35;;;;;;;;;;;20.10;55.40;;;;;;5074043;28;1301;-69
2021/03/31 03:39:02;;;;;;;;;;;20.20;55.20;;;;;;5067812;28;1289;-68
2021/03/31 03:41:28;;;;;;;;;;;20.30;55.00;;;;;;5071763;28;1967;-68
2021/03/31 03:43:54;;;;;;;;;;;20.40;54.80;;;;;;5073153;28;1219;-68
2021/03/31 03:46:19;;;;;;;;;;;20.40;54.60;;;;;;5082768;28;1239;-69
2021/03/31 03:48:44;;;;;;;;;;;20.50;54.50;;;;;;5094385;28;1318;-69
2021/03/31 03:51:10;;;;;;;;;;;20.50;54.40;;;;;;5095774;28;1256;-69
2021/03/31 03:53:35;;;;;;;;;;;20.60;54.30;;;;;;5095775;28;1331;-69
2021/03/31 03:56:01;;;;;;;;;;;20.60;54.10;;;;;;5094620;28;1334;-68
2021/03/31 03:58:27;;;;;;;;;;;20.70;54.70;;;;;;5094144;28;1349;-68
2021/03/31 04:00:53;;;;;;;;;;;20.70;54.00;;;;;;5095565;28;1906;-68
2021/03/31 04:03:18;;;;;;;;;;;20.80;53.90;;;;;;5094354;28;1305;-69
2021/03/31 04:05:44;;;;;;;;;;;20.80;53.80;;;;;;5087279;28;1362;-69
2021/03/31 04:08:09;;;;;;;;;;;20.80;53.80;;;;;;5074386;28;1287;-69
2021/03/31 04:10:35;;;;;;;;;;;20.90;53.70;;;;;;5072274;28;1182;-69
2021/03/31 04:13:00;;;;;;;;;;;20.90;53.70;;;;;;5072120;28;1216;-68
2021/03/31 04:15:26;;;;;;;;;;;20.90;53.60;;;;;;5073558;28;1246;-71
2021/03/31 04:17:51;;;;;;;;;;;21.00;53.60;;;;;;5066532;28;1306;-70
2021/03/31 04:20:20;;;;;;;;;;;20.90;53.50;;;;;;5090526;28;1971;-70
2021/03/31 04:22:46;;;;;;;;;;;21.00;53.50;;;;;;5090513;28;1369;-71
2021/03/31 04:25:12;;;;;;;;;;;21.00;53.50;;;;;;5090704;28;1284;-71
2021/03/31 04:27:38;;;;;;;;;;;21.10;53.50;;;;;;5090094;28;1354;-71
2021/03/31 04:30:04;;;;;;;;;;;21.10;53.40;;;;;;5090448;28;1290;-72
2021/03/31 04:32:30;;;;;;;;;;;21.10;53.30;;;;;;5074836;28;1348;-72
2021/03/31 04:34:55;;;;;;;;;;;21.10;53.30;;;;;;5090526;28;1331;-68
2021/03/31 04:37:20;;;;;;;;;;;21.20;53.30;;;;;;5074614;28;1071;-69
2021/03/31 04:39:46;;;;;;;;;;;21.20;53.20;;;;;;5090253;28;1304;-69
2021/03/31 04:42:11;;;;;;;;;;;21.20;53.20;;;;;;5090018;28;1901;-70
2021/03/31 04:44:37;;;;;;;;;;;21.20;53.20;;;;;;5073202;28;1067;-69
2021/03/31 04:47:03;;;;;;;;;;;21.20;53.20;;;;;;5089712;28;1138;-70
2021/03/31 04:49:28;;;;;;;;;;;21.20;53.10;;;;;;5089860;28;1376;-68
2021/03/31 04:51:53;;;;;;;;;;;21.30;53.10;;;;;;5074096;28;1271;-69
2021/03/31 04:54:19;;;;;;;;;;;21.30;53.10;;;;;;5074318;28;1269;-71
2021/03/31 04:56:44;;;;;;;;;;;21.30;53.70;;;;;;5073281;28;2048;-71
2021/03/31 04:59:10;;;;;;;;;;;21.30;53.10;;;;;;5072623;28;1345;-71
2021/03/31 05:01:35;;;;;;;;;;;21.30;53.00;;;;;;5074421;28;1969;-72
2021/03/31 05:04:01;;;;;;;;;;;21.30;53.00;;;;;;5061211;28;1802;-67
2021/03/31 05:06:26;;;;;;;;;;;21.40;53.00;;;;;;5065277;28;1053;-70
2021/03/31 05:08:51;;;;;;;;;;;21.40;53.00;;;;;;5083649;28;1415;-70
2021/03/31 05:11:17;;;;;;;;;;;21.40;53.00;;;;;;5094094;28;1335;-71
2021/03/31 05:13:42;;;;;;;;;;;21.40;52.90;;;;;;5073154;28;1108;-70
2021/03/31 05:16:08;;;;;;;;;;;21.40;52.90;;;;;;5089511;28;1154;-68
2021/03/31 05:18:33;;;;;;;;;;;21.40;52.90;;;;;;5089039;28;1348;-68
2021/03/31 05:20:59;;;;;;;;;;;21.40;52.90;;;;;;5064239;28;1898;-67
2021/03/31 05:23:24;;;;;;;;;;;21.40;52.90;;;;;;5094035;28;1320;-67
2021/03/31 05:25:49;;;;;;;;;;;21.40;52.90;;;;;;5092656;28;1284;-69
2021/03/31 05:28:15;;;;;;;;;;;21.40;52.90;;;;;;5093428;28;1455;-71
2021/03/31 05:30:40;;;;;;;;;;;21.40;52.90;;;;;;5077455;28;1111;-70
2021/03/31 05:33:06;;;;;;;;;;;21.40;52.90;;;;;;5073451;28;1435;-69
2021/03/31 05:35:31;;;;;;;;;;;21.40;52.90;;;;;;5072965;28;1288;-71
2021/03/31 05:37:56;;;;;;;;;;;21.40;53.00;;;;;;5088859;28;1309;-70
2021/03/31 05:40:22;;;;;;;;;;;21.40;53.00;;;;;;5089153;28;1906;-70
2021/03/31 05:42:48;;;;;;;;;;;21.40;53.00;;;;;;5087542;28;1410;-70
2021/03/31 05:45:14;;;;;;;;;;;21.40;53.10;;;;;;5072117;28;1305;-70
2021/03/31 05:47:42;;;;;;;;;;;21.40;53.10;;;;;;5073008;28;1345;-70
2021/03/31 05:50:08;;;;;;;;;;;21.40;53.20;;;;;;5073073;28;1340;-70
2021/03/31 05:52:34;;;;;;;;;;;21.30;53.20;;;;;;5073365;28;1365;-70
2021/03/31 05:55:02;;;;;;;;;;;21.30;53.20;;;;;;5073505;28;1358;-70
2021/03/31 05:57:29;;;;;;;;;;;21.30;53.20;;;;;;5088051;28;1324;-70
2021/03/31 05:59:55;;;;;;;;;;;21.30;53.30;;;;;;5088795;28;1392;-71
2021/03/31 06:02:20;;;;;;;;;;;21.30;53.40;;;;;;5088787;28;1972;-71
2021/03/31 06:04:46;;;;;;;;;;;21.30;53.40;;;;;;5072809;28;1316;-70
2021/03/31 06:07:11;;;;;;;;;;;21.20;53.30;;;;;;5072865;28;1263;-70
2021/03/31 06:09:56;;;;;;;;;;;21.20;53.40;;;;;;5084201;28;1413;-68
2021/03/31 06:12:28;;;;;;;;;;;21.20;53.50;;;;;;5060874;28;1075;-69
2021/03/31 06:14:53;;;;;;;;;;;21.20;53.60;;;;;;5071523;28;1291;-69
2021/03/31 06:17:19;;;;;;;;;;;21.10;53.60;;;;;;5072300;28;1083;-67
2021/03/31 06:19:45;;;;;;;;;;;21.10;53.60;;;;;;5071196;28;1357;-68
2021/03/31 06:22:36;;;;;;;;;;;21.10;53.70;;;;;;5072523;28;1965;-68
2021/03/31 06:25:16;;;;;;;;;;;21.10;53.80;;;;;;5085298;28;1392;-67
2021/03/31 06:27:42;;;;;;;;;;;21.00;53.70;;;;;;5072453;28;1413;-66
2021/03/31 06:30:07;;;;;;;;;;;21.00;53.80;;;;;;5088217;28;1362;-66
2021/03/31 06:32:36;;;;;;;;;;;21.00;53.80;;;;;;5072567;28;1317;-66
2021/03/31 06:35:03;;;;;;;;;;;21.00;53.90;;;;;;5088168;28;1283;-69
2021/03/31 06:37:36;;;;;;;;;;;21.00;53.90;;;;;;5071293;28;1435;-68
2021/03/31 06:40:02;;;;;;;;;;;21.00;54.00;;;;;;5076852;28;1279;-68
2021/03/31 06:42:39;;;;;;;;;;;20.90;54.00;;;;;;5087868;28;1973;-67
2021/03/31 06:45:13;;;;;;;;;;;21.00;54.10;;;;;;5086921;28;951;-69
2021/03/31 06:47:55;;;;;;;;;;;20.90;54.10;;;;;;5072078;28;1146;-73
2021/03/31 06:50:21;;;;;;;;;;;20.90;54.10;;;;;;5086263;28;1302;-72
2021/03/31 06:52:52;;;;;;;;;;;20.90;54.10;;;;;;5072381;28;1294;-72
2021/03/31 06:55:18;;;;;;;;;;;20.90;54.20;;;;;;5071408;28;1419;-70
2021/03/31 06:57:49;;;;;;;;;;;20.90;54.20;;;;;;5087834;28;1409;-71
2021/03/31 07:00:15;;;;;;;;;;;20.90;54.30;;;;;;5087959;28;1258;-70
2021/03/31 07:02:42;;;;;;;;;;;20.80;54.30;;;;;;5072596;28;1902;-71
2021/03/31 07:05:08;;;;;;;;;;;20.80;54.30;;;;;;5087649;28;1389;-71
2021/03/31 07:07:34;;;;;;;;;;;20.80;54.30;;;;;;5070970;28;1336;-71
2021/03/31 07:10:09;;;;;;;;;;;20.80;54.40;;;;;;5087962;28;1330;-70
2021/03/31 07:12:44;;;;;;;;;;;20.80;54.40;;;;;;5072594;28;1301;-71
2021/03/31 07:15:09;;;;;;;;;;;20.80;54.50;;;;;;5090273;28;1324;-70
2021/03/31 07:17:35;;;;;;;;;;;20.80;54.50;;;;;;5092499;28;1392;-70
2021/03/31 07:20:00;;;;;;;;;;;20.70;54.50;;;;;;5092378;28;1300;-69
2021/03/31 07:22:26;;;;;;;;;;;20.70;54.50;;;;;;5091180;28;1963;-69
2021/03/31 07:24:55;;;;;;;;;;;20.70;54.50;;;;;;5091048;28;1328;-69
2021/03/31 07:27:23;;;;;;;;;;;20.70;54.60;;;;;;5091990;28;1310;-69
2021/03/31 07:30:07;;;;;;;;;;;20.70;54.60;;;;;;5091526;28;1338;-69
2021/03/31 07:32:38;;;;;;;;;;;20.70;54.70;;;;;;5091574;28;1361;-69
2021/03/31 07:35:03;;;;;;;;;;;20.60;54.60;;;;;;5074454;28;1825;-70
2021/03/31 07:37:32;;;;;;;;;;;20.60;54.70;;;;;;5090637;28;1170;-69
2021/03/31 07:40:00;;;;;;;;;;;20.60;54.70;;;;;;5092391;28;1453;-69
2021/03/31 07:42:26;;;;;;;;;;;20.60;54.80;;;;;;5090955;28;1895;-70
2021/03/31 07:44:52;;;;;;;;;;;20.60;54.80;;;;;;5075473;28;2283;-69
2021/03/31 07:47:17;;;;;;;;;;;20.60;54.90;;;;;;5060676;28;1313;-70
2021/03/31 07:49:43;;;;;;;;;;;20.60;54.90;;;;;;5061167;28;1299;-70
2021/03/31 07:52:08;;;;;;;;;;;20.50;54.90;;;;;;5076127;28;1339;-69
2021/03/31 07:54:33;;;;;;;;;;;20.50;54.90;;;;;;5074173;28;1078;-70
2021/03/31 07:57:21;;;;;;;;;;;20.50;54.90;;;;;;5070953;28;1390;-69
2021/03/31 07:59:47;;;;;;;;;;;20.50;54.90;;;;;;5075636;28;1380;-69
2021/03/31 08:02:12;;;;;;;;;;;20.50;55.00;;;;;;5075217;28;1898;-69
2021/03/31 08:04:38;;;;;;;;;;;20.50;55.00;;;;;;5091081;28;1107;-69
2021/03/31 08:07:17;;;;;;;;;;;20.50;55.00;;;;;;5074925;28;1216;-69
2021/03/31 08:09:43;;;;;;;;;;;20.50;55.00;;;;;;5090635;28;1254;-69
2021/03/31 08:12:08;;;;;;;;;;;20.50;55.10;;;;;;5075027;28;1249;-69
2021/03/31 08:14:35;;;;;;;;;;;20.40;55.00;;;;;;5089263;28;1246;-70
2021/03/31 08:17:07;;;;;;;;;;;20.40;55.10;;;;;;5073583;28;1259;-70
2021/03/31 08:19:38;;;;;;;;;;;20.40;55.10;;;;;;5075169;28;1385;-70
2021/03/31 08:22:22;;;;;;;;;;;20.40;55.10;;;;;;5090355;28;1893;-71
2021/03/31 08:24:48;;;;;;;;;;;20.40;55.10;;;;;;5061601;28;1212;-70
2021/03/31 08:27:14;;;;;;;;;;;20.40;55.20;;;;;;5084103;28;1331;-70
2021/03/31 08:29:42;;;;;;;;;;;20.40;55.20;;;;;;5093609;28;1376;-70
2021/03/31 08:32:08;;;;;;;;;;;20.40;55.20;;;;;;5084293;28;894;-70
2021/03/31 08:34:33;;;;;;;;;;;20.40;55.20;;;;;;5090147;28;1293;-69
2021/03/31 08:36:59;;;;;;;;;;;20.40;55.20;;;;;;5090010;28;1091;-68
2021/03/31 08:39:25;;;;;;;;;;;20.40;55.30;;;;;;5074291;28;1433;-68
2021/03/31 08:41:53;;;;;;;;;;;20.40;55.30;;;;;;5074652;28;1906;-69
2021/03/31 08:44:26;;;;;;;;;;;20.30;55.20;;;;;;5083388;28;1382;-70
2021/03/31 08:46:52;;;;;;;;;;;20.40;55.30;;;;;;5074162;28;1426;-70
2021/03/31 08:49:24;;;;;;;;;;;20.30;55.40;;;;;;5073831;28;1501;-70
2021/03/31 08:51:50;;;;;;;;;;;20.40;55.40;;;;;;5057457;28;1306;-70
2021/03/31 08:54:16;;;;;;;;;;;20.30;55.30;;;;;;5074543;28;1400;-70
2021/03/31 08:56:46;;;;;;;;;;;20.30;55.30;;;;;;5072209;28;1430;-70
2021/03/31 08:59:11;;;;;;;;;;;20.30;55.30;;;;;;5071399;28;1376;-70
2021/03/31 09:01:36;;;;;;;;;;;20.30;55.30;;;;;;5076882;28;1901;-71
2021/03/31 09:04:15;;;;;;;;;;;20.30;55.40;;;;;;5073009;28;1657;-68
2021/03/31 09:06:41;;;;;;;;;;;20.30;55.40;;;;;;5072056;28;1517;-69
2021/03/31 09:09:06;;;;;;;;;;;20.30;55.40;;;;;;5073735;28;1364;-69
2021/03/31 09:11:32;;;;;;;;;;;20.30;55.40;;;;;;5072718;28;1350;-69
2021/03/31 09:14:13;;;;;;;;;;;20.30;55.40;;;;;;5088789;28;1198;-69
2021/03/31 09:16:47;;;;;;;;;;;20.30;55.50;;;;;;5074133;28;1351;-69
2021/03/31 09:19:12;;;;;;;;;;;20.20;55.40;;;;;;5089177;28;1311;-69
2021/03/31 09:21:37;;;;;;;;;;;20.20;55.50;;;;;;5073707;28;1909;-69
2021/03/31 09:24:05;;;;;;;;;;;20.20;55.50;;;;;;5073776;28;1547;-69
2021/03/31 09:26:30;;;;;;;;;;;20.20;55.60;;;;;;5073776;28;1689;-70
2021/03/31 09:28:57;;;;;;;;;;;20.20;55.60;;;;;;5072919;28;1369;-71
2021/03/31 09:31:24;;;;;;;;;;;20.20;55.60;;;;;;5073561;28;1157;-71
2021/03/31 09:33:49;;;;;;;;;;;20.20;55.70;;;;;;5073489;28;1254;-71
2021/03/31 09:36:18;;;;;;;;;;;20.20;55.70;;;;;;5089260;28;1345;-70
2021/03/31 09:38:44;;;;;;;;;;;20.10;55.80;;;;;;5088959;28;1386;-71
2021/03/31 09:41:10;;;;;;;;;;;20.10;55.70;;;;;;5073633;28;1981;-70
2021/03/31 09:43:35;;;;;;;;;;;20.10;55.70;;;;;;5088630;28;1277;-71
2021/03/31 09:46:01;;;;;;;;;;;20.10;56.30;;;;;;5089052;28;1394;-71
2021/03/31 09:48:26;;;;;;;;;;;20.10;55.80;;;;;;5088498;28;1322;-70
2021/03/31 09:50:52;;;;;;;;;;;20.10;55.80;;;;;;5073279;28;1341;-70
2021/03/31 09:53:18;;;;;;;;;;;20.10;55.80;;;;;;5088904;28;1346;-70
2021/03/31 09:55:44;;;;;;;;;;;20.10;55.80;;;;;;5088807;28;1458;-71
2021/03/31 09:58:09;;;;;;;;;;;20.10;55.90;;;;;;5088160;28;1701;-71
2021/03/31 10:00:35;;;;;;;;;;;20.10;55.90;;;;;;5080797;28;1894;-74
2021/03/31 10:03:01;;;;;;;;;;;20.10;55.90;;;;;;5070684;28;1591;-75
2021/03/31 10:05:27;;;;;;;;;;;20.10;55.90;;;;;;5088270;28;1621;-67
2021/03/31 10:07:56;;;;;;;;;;;20.10;56.00;;;;;;5071441;28;1356;-67
2021/03/31 10:10:36;;;;;;;;;;;20.10;56.00;;;;;;5078299;28;1217;-68
2021/03/31 10:13:02;;;;;;;;;;;20.10;56.00;;;;;;5089494;28;1055;-68
2021/03/31 10:15:27;;;;;;;;;;;20.10;56.00;;;;;;5072609;28;1329;-72
2021/03/31 10:17:53;;;;;;;;;;;20.10;56.10;;;;;;5071136;28;1272;-72
2021/03/31 10:20:18;;;;;;;;;;;20.00;56.00;;;;;;5071455;28;1261;-72
2021/03/31 10:22:53;;;;;;;;;;;20.00;56.00;;;;;;5068690;28;1963;-71
2021/03/31 10:25:24;;;;;;;;;;;20.00;56.10;;;;;;5063182;28;1111;-71
2021/03/31 10:27:50;;;;;;;;;;;20.00;56.10;;;;;;5071127;28;1039;-72
2021/03/31 10:30:22;;;;;;;;;;;20.00;56.10;;;;;;5060488;28;1272;-66
2021/03/31 10:32:48;;;;;;;;;;;20.00;56.10;;;;;;5086668;28;1287;-67
2021/03/31 10:35:14;;;;;;;;;;;20.00;56.10;;;;;;5071751;28;1404;-66
2021/03/31 10:37:43;;;;;;;;;;;20.00;56.10;;;;;;5086534;28;1114;-67
2021/03/31 10:40:39;;;;;;;;;;;20.00;56.10;;;;;;5085135;28;1428;-69
2021/03/31 10:54:06;;;;;;;;;;;20.00;56.10;;;;;;5064187;28;1968;-68
2021/03/31 10:56:33;;;;;;;;;;;19.90;56.70;;;;;;5061977;28;2017;-68
2021/03/31 10:58:58;;;;;;;;;;;19.90;56.10;;;;;;5069621;28;2107;-70
2021/03/31 11:01:23;;;;;;;;;;;19.90;56.10;;;;;;5082368;28;1981;-70
2021/03/31 11:03:49;;;;;;;;;;;19.90;56.10;;;;;;5085771;28;1434;-70
2021/03/31 11:06:14;;;;;;;;;;;19.90;56.10;;;;;;5058093;28;1678;-69
2021/03/31 11:08:40;;;;;;;;;;;19.90;56.10;;;;;;5069591;28;1258;-70
2021/03/31 11:11:09;;;;;;;;;;;19.90;56.20;;;;;;5071233;28;1262;-70
2021/03/31 11:13:34;;;;;;;;;;;19.90;56.10;;;;;;5076100;28;1111;-70
2021/03/31 11:16:02;;;;;;;;;;;19.90;56.20;;;;;;5078401;28;1284;-68
2021/03/31 11:21:58;;;;;;;;;;;19.90;56.20;;;;;;5074922;28;1979;-69
2021/03/31 11:26:47;;;;;;;;;;;19.90;56.20;;;;;;5082387;28;996;-68
2021/03/31 11:29:13;;;;;;;;;;;19.90;56.20;;;;;;5062249;28;1430;-68
2021/03/31 11:31:38;;;;;;;;;;;19.90;56.20;;;;;;5082628;28;1347;-68
2021/03/31 11:34:04;;;;;;;;;;;19.90;56.20;;;;;;5093671;28;1037;-68
2021/03/31 11:36:29;;;;;;;;;;;19.90;56.20;;;;;;5095020;28;1301;-68
2021/03/31 11:38:55;;;;;;;;;;;19.90;56.20;;;;;;5094160;28;1282;-68
2021/03/31 11:41:20;;;;;;;;;;;19.90;56.30;;;;;;5080853;28;1945;-68
2021/03/31 11:43:46;;;;;;;;;;;19.90;56.30;;;;;;5094706;28;1338;-68
2021/03/31 11:46:11;;;;;;;;;;;19.90;56.30;;;;;;5081745;28;1376;-68
2021/03/31 11:48:37;;;;;;;;;;;19.80;56.20;;;;;;5094282;28;1461;-68
2021/03/31 11:51:02;;;;;;;;;;;19.80;56.20;;;;;;5092108;28;1800;-69
2021/03/31 11:53:31;;;;;;;;;;;19.80;56.30;;;;;;5070258;28;2218;-69
2021/03/31 11:55:57;;;;;;;;;;;19.80;56.20;;;;;;5063994;28;1078;-69
2021/03/31 11:58:22;;;;;;;;;;;19.80;56.20;;;;;;5067092;28;1285;-69
2021/03/31 12:00:48;;;;;;;;;;;19.80;56.30;;;;;;5093305;28;1897;-69
2021/03/31 12:03:13;;;;;;;;;;;19.80;56.30;;;;;;5087874;28;1065;-69
2021/03/31 12:05:38;;;;;;;;;;;19.80;56.30;;;;;;5073928;28;1164;-69
2021/03/31 12:08:04;;;;;;;;;;;19.80;56.30;;;;;;5073639;28;1274;-69
2021/03/31 12:10:29;;;;;;;;;;;19.80;56.30;;;;;;5074371;28;1348;-69
2021/03/31 12:12:55;;;;;;;;;;;19.80;56.30;;;;;;5073043;28;1372;-69
2021/03/31 12:15:20;;;;;;;;;;;19.80;56.40;;;;;;5094533;28;1102;-68
2021/03/31 12:17:46;;;;;;;;;;;19.80;56.30;;;;;;5083178;28;1054;-69
2021/03/31 12:20:12;;;;;;;;;;;19.80;56.30;;;;;;5089578;28;1325;-69
2021/03/31 12:22:38;;;;;;;;;;;19.80;56.40;;;;;;5089436;28;1910;-69
2021/03/31 12:25:04;;;;;;;;;;;19.80;56.40;;;;;;5089710;28;1357;-69
2021/03/31 12:27:33;;;;;;;;;;;19.80;56.40;;;;;;5073632;28;1233;-69
2021/03/31 12:29:59;;;;;;;;;;;19.80;56.40;;;;;;5073486;28;1320;-69
2021/03/31 12:32:24;;;;;;;;;;;19.80;56.40;;;;;;5072335;28;1257;-69
2021/03/31 12:34:52;;;;;;;;;;;19.80;56.40;;;;;;5073839;28;1228;-70
2021/03/31 12:37:17;;;;;;;;;;;19.80;56.40;;;;;;5066823;28;1286;-69
2021/03/31 12:39:43;;;;;;;;;;;19.80;56.40;;;;;;5099796;28;1527;-70
2021/03/31 12:42:08;;;;;;;;;;;19.80;56.50;;;;;;5079727;28;1988;-69
2021/03/31 12:44:34;;;;;;;;;;;19.80;56.50;;;;;;5073510;28;1080;-69
2021/03/31 12:46:59;;;;;;;;;;;19.80;56.50;;;;;;5072537;28;1346;-70
2021/03/31 12:49:25;;;;;;;;;;;19.80;56.50;;;;;;5071816;28;1416;-69
2021/03/31 12:51:55;;;;;;;;;;;19.80;56.50;;;;;;5073343;28;1261;-69
2021/03/31 12:56:46;;;;;;;;;;;19.80;56.50;;;;;;5088990;28;1286;-69
2021/03/31 12:59:12;;;;;;;;;;;19.70;56.50;;;;;;5088362;28;1262;-69
2021/03/31 13:01:38;;;;;;;;;;;19.70;56.50;;;;;;5073074;28;1969;-70
2021/03/31 13:04:03;;;;;;;;;;;19.70;56.50;;;;;;5073206;28;1350;-69
2021/03/31 13:06:32;;;;;;;;;;;19.70;56.50;;;;;;5073210;28;1146;-69
2021/03/31 13:08:58;;;;;;;;;;;19.70;56.50;;;;;;5071400;28;1741;-69
2021/03/31 13:11:24;;;;;;;;;;;19.70;56.50;;;;;;5088799;28;948;-69
2021/03/31 13:14:15;;;;;;;;;;;19.70;56.50;;;;;;5070273;28;1547;-69
2021/03/31 13:22:12;;;;;;;;;;;19.70;56.50;;;;;;5072434;28;1906;-69
2021/03/31 13:24:54;;;;;;;;;;;19.70;56.50;;;;;;5087148;28;1276;-69
2021/03/31 13:33:13;;;;;;;;;;;19.70;56.60;;;;;;5047455;28;1608;-64
2021/03/31 13:38:06;;;;;;;;;;;19.70;56.60;;;;;;5052619;28;1328;-66
2021/03/31 13:40:31;;;;;;;;;;;19.70;56.60;;;;;;5051441;28;1627;-64
2021/03/31 13:42:57;;;;;;;;;;;19.70;56.60;;;;;;5051855;28;1914;-65
2021/03/31 13:45:22;;;;;;;;;;;19.70;56.60;;;;;;5052251;28;1486;-65
2021/03/31 13:48:03;;;;;;;;;;;19.70;56.60;;;;;;5052194;28;1447;-65
2021/03/31 13:50:31;;;;;;;;;;;19.70;57.20;;;;;;5052264;28;1350;-65
2021/03/31 13:52:59;;;;;;;;;;;19.70;56.60;;;;;;5052396;28;1694;-65
2021/03/31 13:55:27;;;;;;;;;;;19.70;56.60;;;;;;5050951;28;1727;-65
2021/03/31 13:57:53;;;;;;;;;;;19.70;56.70;;;;;;5034404;28;1399;-65
2021/03/31 14:00:20;;;;;;;;;;;19.70;56.70;;;;;;5052230;28;1552;-64
2021/03/31 14:02:46;;;;;;;;;;;19.70;56.70;;;;;;5052443;28;1956;-65
2021/03/31 14:05:12;;;;;;;;;;;19.70;56.70;;;;;;5048510;28;1652;-66
2021/03/31 14:07:37;;;;;;;;;;;19.70;56.70;;;;;;5040801;28;1673;-64
2021/03/31 14:10:06;;;;;;;;;;;19.60;56.60;;;;;;5051872;28;1624;-65
2021/03/31 14:12:32;;;;;;;;;;;19.60;56.60;;;;;;5050783;28;1340;-66
2021/03/31 14:14:57;;;;;;;;;;;19.60;56.70;;;;;;5051980;28;1262;-65
2021/03/31 14:17:24;;;;;;;;;;;19.70;56.70;;;;;;5051682;28;1639;-65
2021/03/31 14:20:09;;;;;;;;;;;19.60;56.70;;;;;;5050507;28;1355;-64
2021/03/31 14:22:34;;;;;;;;;;;19.70;56.70;;;;;;5051706;28;1967;-65
2021/03/31 14:25:02;;;;;;;;;;;19.60;56.70;;;;;;5050331;28;1718;-66
2021/03/31 14:27:27;;;;;;;;;;;19.60;56.70;;;;;;5050573;28;1670;-65
2021/03/31 14:29:53;;;;;;;;;;;19.60;57.00;;;;;;5051672;28;1358;-65
2021/03/31 14:32:18;;;;;;;;;;;19.60;56.70;;;;;;5051907;28;1370;-66
2021/03/31 14:34:46;;;;;;;;;;;19.70;56.80;;;;;;5051769;28;1675;-66
2021/03/31 14:37:12;;;;;;;;;;;19.60;56.70;;;;;;5051242;28;1480;-65
2021/03/31 14:39:38;;;;;;;;;;;19.70;56.80;;;;;;5050328;28;1302;-65
2021/03/31 14:42:03;;;;;;;;;;;19.70;56.80;;;;;;5050413;28;1909;-66
2021/03/31 14:44:29;;;;;;;;;;;19.60;56.70;;;;;;5052000;28;1669;-67
2021/03/31 14:46:54;;;;;;;;;;;19.60;56.70;;;;;;5050385;28;1655;-65
2021/03/31 14:49:22;;;;;;;;;;;19.60;56.80;;;;;;5051240;28;1584;-65
2021/03/31 14:59:44;;;;;;;;;;;19.60;56.80;;;;;;5043202;28;1256;-65
2021/03/31 15:02:10;;;;;;;;;;;19.60;56.80;;;;;;5046525;28;1902;-66
2021/03/31 15:04:35;;;;;;;;;;;19.60;56.80;;;;;;5044158;28;1231;-65
2021/03/31 15:07:00;;;;;;;;;;;19.60;56.80;;;;;;5046008;28;1523;-65
2021/03/31 15:09:26;;;;;;;;;;;19.60;56.80;;;;;;5046035;28;1378;-66
2021/03/31 15:11:51;;;;;;;;;;;19.60;56.60;;;;;;5054394;28;1662;-65